Monday, December 17, 2018, 9:48 AM GMT
Back to Local

CYYY, Mont Joli, Que.

Location: , , Canada Lat: 48.6
Local Time: 9:48 AM GMT ( 9:48 GMT) Lon: -68.217
Time Zone: GMT Elev: 157 ft

Show me the last for .
Show Coded

Time T Td Feel RH Dir Speed Gust Alt SLP Vis Weather Sky Remarks
2018-12-17 09:00 27 23 - 86 Variable 2 - 29.82 29.83 15 SCT150 OVC200 None
2018-12-17 08:00 27 23 - 86 Variable 2 - 29.85 29.86 15 OVC200 None
2018-12-17 07:00 30 23 25 74 360° 5 - 29.86 29.88 15 OVC200 None
2018-12-17 06:00 30 21 24 68 190° 6 - 29.89 29.90 15 OVC200 Pressure falling rapidly
2018-12-17 05:00 30 23 27 74 230° 3 - 29.92 29.93 15 OVC200 None
2018-12-17 04:00 30 23 21 74 160° 10 - 29.94 29.95 15 BKN220 None
2018-12-17 03:00 28 23 17 79 150° 14 - 29.96 29.98 15 BKN220 Pressure falling rapidly
2018-12-17 02:00 25 21 - 85 200° 2 - 30.01 30.02 15 BKN240 None
2018-12-17 01:00 30 23 23 74 210° 8 - 30.05 30.06 15 SCT240 None
2018-12-17 00:00 23 19 14 85 120° 8 - 30.06 30.07 15 CLR Pressure falling rapidly
2018-12-16 23:00 23 18 16 79 150° 6 - 30.10 30.11 30 FEW220 None
2018-12-16 22:00 25 19 19 79 160° 5 - 30.11 30.13 30 FEW220 None
2018-12-16 21:00 27 21 23 79 200° 3 - 30.12 30.14 30 FEW220 None
2018-12-16 20:00 30 21 - 68 - Calm - 30.12 30.14 30 FEW220 None
2018-12-16 19:00 30 21 - 68 - Calm - 30.13 30.14 30 FEW020 FEW240 None
2018-12-16 18:00 32 21 26 63 290° 7 - 30.15 30.16 30 BKN022 None
2018-12-16 17:00 30 23 24 74 270° 6 - 30.18 30.19 30 BKN023 None
2018-12-16 16:00 30 23 25 74 260° 5 - 30.19 30.20 30 SCT040 None
2018-12-16 15:00 30 21 25 68 220° 5 - 30.23 30.24 30 BKN023 None
2018-12-16 14:00 28 23 25 79 190° 3 - 30.23 30.24 30 BKN025 None
2018-12-16 13:00 27 21 20 79 190° 6 - 30.23 30.24 30 BKN026 None
2018-12-16 12:00 28 23 - 79 Variable 2 - 30.23 30.24 30 BKN035 None
2018-12-16 11:00 28 23 20 79 340° 8 - 30.23 30.24 15 BKN029 None
2018-12-16 10:00 30 23 20 74 320° 13 - 30.23 30.24 15 OVC025 None

Support USWX by starting your Amazon purchase here.